EST,Max TemperatureF,Mean TemperatureF,Min TemperatureF,Max Dew PointF,MeanDew PointF,Min DewpointF,Max Humidity, Mean Humidity, Min Humidity, Max Sea Level PressureIn, Mean Sea Level PressureIn, Min Sea Level PressureIn, Max VisibilityMiles, Mean VisibilityMiles, Min VisibilityMiles, Max Wind SpeedMPH, Mean Wind SpeedMPH, Max Gust SpeedMPH,PrecipitationIn, CloudCover, Events, WindDirDegrees
2012-11-1,61,49,37,33,29,20,83,46,31,29.91,29.84,29.79,10,10,10,12,6,,0.00,0,,292
2012-11-2,72,52,33,40,32,26,85,56,29,29.99,29.91,29.83,10,10,10,14,5,21,0.00,1,,262
2012-11-3,70,52,35,42,36,30,97,63,25,30.12,30.04,29.99,10,9,6,8,1,,0.00,0,,234
2012-11-4,63,54,46,51,43,38,90,67,48,30.01,29.98,29.95,10,10,8,7,2,,0.01,2,Rain,39
2012-11-5,59,51,42,44,35,30,80,58,33,30.09,30.05,30.00,10,10,9,9,4,16,0.00,2,,28
2012-11-6,48,42,36,35,32,30,82,66,50,30.12,30.04,29.97,10,9,8,9,6,,0.00,4,,41
2012-11-7,54,44,33,40,35,31,96,75,49,29.97,29.93,29.86,10,8,5,7,3,,0.00,2,,330
2012-11-8,64,50,36,37,30,21,86,53,19,30.16,30.08,29.98,10,10,9,13,6,21,0.00,0,,338
2012-11-9,66,50,33,36,31,28,89,59,24,30.29,30.23,30.17,10,9,6,12,3,,0.00,0,,300
2012-11-10,72,52,33,38,33,28,92,60,20,30.38,30.33,30.27,10,9,6,9,2,,0.00,0,,201
2012-11-11,72,54,36,55,44,34,93,72,39,30.48,30.42,30.38,10,9,5,9,2,,0.00,1,,198
2012-11-12,72,62,53,62,57,52,97,86,64,30.37,30.29,30.17,10,8,2,12,2,17,0.02,4,,187
2012-11-13,62,53,43,61,46,29,100,80,42,30.40,30.27,30.15,10,8,2,18,7,24,0.12,6,Rain,30
2012-11-14,53,45,37,34,30,28,79,58,40,30.48,30.40,30.33,10,10,10,13,6,17,0.00,2,,44
2012-11-15,46,40,34,38,34,31,100,83,60,30.35,30.31,30.27,10,7,2,13,7,21,0.56,6,Rain,31
2012-11-16,57,46,34,39,34,31,92,76,40,30.39,30.32,30.27,10,9,7,8,4,,0.00,2,,28
2012-11-17,57,46,36,33,28,22,86,52,26,30.48,30.43,30.40,10,10,9,14,8,23,0.00,0,,31
2012-11-18,55,50,44,46,38,28,90,64,48,30.44,30.39,30.34,10,10,3,16,11,25,0.02,5,Rain,30
2012-11-19,63,54,45,47,44,41,86,71,56,30.31,30.26,30.20,10,10,10,13,9,18,0.00,5,,30
2012-11-20,61,50,39,44,41,38,97,81,52,30.20,30.14,30.07,10,9,4,8,4,,0.00,0,,18
2012-11-21,63,49,35,45,37,34,100,86,35,30.19,30.14,30.10,10,5,0,10,2,,0.00,0,Fog,10
2012-11-22,64,50,35,36,33,30,92,65,28,30.28,30.22,30.18,10,10,8,9,4,,0.00,0,,11
2012-11-23,64,47,30,42,36,29,96,63,35,30.18,30.05,29.93,10,10,5,10,3,,0.00,0,,249
2012-11-24,55,44,30,29,23,14,79,46,20,30.13,30.04,29.96,10,10,10,13,7,16,0.00,0,,341
2012-11-25,53,38,23,25,22,19,88,59,27,30.24,30.14,30.07,10,10,10,10,3,16,0.00,0,,213
2012-11-26,64,46,28,32,26,23,82,53,22,30.23,30.17,30.11,10,10,6,6,3,,0.00,1,,192
2012-11-27,57,50,42,52,43,28,100,77,44,30.22,30.15,30.11,10,7,1,10,5,,0.02,8,Rain,199
2012-11-28,55,46,33,45,37,32,100,75,44,30.40,30.32,30.23,10,9,5,7,3,,0.00,3,,36
2012-11-29,57,42,28,38,33,28,100,81,47,30.50,30.43,30.38,10,7,2,7,1,,0.00,0,,201
2012-11-30,62,45,28,44,36,28,100,73,44,30.43,30.37,30.30,10,9,5,16,5,21,0.00,0,,212